Time;durP1;ratioP1;P1;durP2;ratioP2;P2;SDS_P1;SDS_P2;PMS_P1;PMS_P2;Temp;Humidity;BMP_temperature;BMP_pressure;BME280_temperature;BME280_humidity;BME280_pressure;Samples;Min_cycle;Max_cycle;Signal;HPM_P1;HPM_P2
2023/11/28 00:00:01;;;;;;;11.32;7.68;;;2.10;99.90;;;;;;7380214;19;20021;-60
2023/11/28 00:02:38;;;;;;;10.18;8.15;;;2.10;99.90;;;;;;7377603;19;20334;-59
2023/11/28 00:05:05;;;;;;;11.38;8.35;;;2.10;99.90;;;;;;7379124;19;20852;-60
2023/11/28 00:07:33;;;;;;;14.68;8.95;;;2.10;99.90;;;;;;7373297;19;20506;-60
2023/11/28 00:10:00;;;;;;;13.60;7.57;;;2.10;99.90;;;;;;7375270;19;20443;-59
2023/11/28 00:12:27;;;;;;;10.40;7.53;;;2.10;99.90;;;;;;7377786;19;20394;-60
2023/11/28 00:14:53;;;;;;;10.52;7.90;;;2.10;99.90;;;;;;7375272;19;20494;-60
2023/11/28 00:17:20;;;;;;;11.70;8.32;;;2.10;99.90;;;;;;7377245;19;20018;-60
2023/11/28 00:19:46;;;;;;;9.05;6.65;;;2.10;99.90;;;;;;7375999;19;20082;-59
2023/11/28 00:22:13;;;;;;;9.95;7.15;;;2.10;99.90;;;;;;7376769;19;20018;-60
2023/11/28 00:24:39;;;;;;;9.68;6.88;;;2.10;99.90;;;;;;7374036;19;20498;-60
2023/11/28 00:27:05;;;;;;;7.13;5.75;;;2.10;99.90;;;;;;7374391;19;20046;-60
2023/11/28 00:29:34;;;;;;;8.38;5.63;;;2.10;99.90;;;;;;7370665;19;20015;-60
2023/11/28 00:32:03;;;;;;;8.45;5.55;;;2.00;99.90;;;;;;7373491;19;20048;-60
2023/11/28 00:34:29;;;;;;;5.55;4.10;;;1.90;99.90;;;;;;7372276;19;20014;-60
2023/11/28 00:36:56;;;;;;;7.38;5.35;;;1.80;99.90;;;;;;7370953;19;20340;-60
2023/11/28 00:39:23;;;;;;;6.70;3.58;;;1.80;99.90;;;;;;7372418;19;20102;-60
2023/11/28 00:41:49;;;;;;;6.15;3.92;;;1.70;99.90;;;;;;7374843;19;20593;-59
2023/11/28 00:44:17;;;;;;;6.55;3.78;;;1.60;99.90;;;;;;7376953;19;20022;-60
2023/11/28 00:46:43;;;;;;;6.10;3.85;;;1.50;99.90;;;;;;7375165;19;20018;-60
2023/11/28 00:49:13;;;;;;;6.90;4.18;;;1.50;99.90;;;;;;7377268;19;20873;-60
2023/11/28 00:51:43;;;;;;;5.95;3.05;;;1.30;99.90;;;;;;7377448;19;20022;-60
2023/11/28 00:54:10;;;;;;;6.88;3.33;;;1.30;99.90;;;;;;7372385;19;20018;-60
2023/11/28 00:56:36;;;;;;;6.25;3.20;;;1.20;99.90;;;;;;7377546;19;20501;-60
2023/11/28 00:59:04;;;;;;;7.78;3.70;;;1.20;99.90;;;;;;7374033;19;20019;-60
2023/11/28 01:01:31;;;;;;;5.60;3.17;;;1.10;99.90;;;;;;7373720;19;20114;-61
2023/11/28 01:03:57;;;;;;;4.72;3.10;;;1.10;99.90;;;;;;7373048;19;20551;-59
2023/11/28 01:06:25;;;;;;;4.90;2.95;;;1.00;99.90;;;;;;7373113;19;20022;-59
2023/11/28 01:08:51;;;;;;;4.45;3.00;;;1.00;99.90;;;;;;7371626;19;20039;-62
2023/11/28 01:11:21;;;;;;;5.57;3.20;;;1.00;99.90;;;;;;7377694;19;20032;-59
2023/11/28 01:13:55;;;;;;;4.18;2.70;;;0.90;99.90;;;;;;7371931;19;20030;-59
2023/11/28 01:16:21;;;;;;;4.70;2.65;;;0.90;99.90;;;;;;7366825;19;20026;-59
2023/11/28 01:18:50;;;;;;;5.82;2.38;;;0.90;99.90;;;;;;7372425;19;20022;-59
2023/11/28 01:21:16;;;;;;;4.60;2.72;;;0.90;99.90;;;;;;7371124;19;20054;-60
2023/11/28 01:23:43;;;;;;;7.53;2.72;;;0.80;99.90;;;;;;7366635;19;20014;-59
2023/11/28 01:26:09;;;;;;;3.75;2.50;;;0.80;99.90;;;;;;7373336;19;20845;-60
2023/11/28 01:28:35;;;;;;;3.03;2.38;;;0.80;99.90;;;;;;7371222;19;20030;-59
2023/11/28 01:31:01;;;;;;;3.95;2.60;;;0.80;99.90;;;;;;7368964;19;20025;-59
2023/11/28 01:33:31;;;;;;;2.97;2.08;;;0.80;99.90;;;;;;7376465;19;20023;-59
2023/11/28 01:35:57;;;;;;;3.20;2.00;;;0.70;99.90;;;;;;7370702;19;20022;-59
2023/11/28 01:38:24;;;;;;;3.40;2.10;;;0.70;99.90;;;;;;7367296;19;20025;-59
2023/11/28 01:40:51;;;;;;;3.28;1.98;;;0.70;99.90;;;;;;7370543;19;20014;-59
2023/11/28 01:43:28;;;;;;;4.25;2.17;;;0.70;99.90;;;;;;7371996;19;20022;-60
2023/11/28 01:45:55;;;;;;;3.50;1.88;;;0.70;99.90;;;;;;7370778;19;20018;-60
2023/11/28 01:48:22;;;;;;;2.50;1.88;;;0.70;99.90;;;;;;7374167;19;20015;-60
2023/11/28 01:50:50;;;;;;;2.15;1.70;;;0.70;99.90;;;;;;7371640;19;20466;-60
2023/11/28 01:53:21;;;;;;;3.88;2.00;;;0.70;99.90;;;;;;7371300;19;20015;-60
2023/11/28 01:55:48;;;;;;;2.87;2.00;;;0.70;99.90;;;;;;7369636;19;20019;-60
2023/11/28 01:58:15;;;;;;;2.65;2.00;;;0.70;99.90;;;;;;7370744;19;20794;-59
2023/11/28 02:00:43;;;;;;;3.40;2.10;;;0.80;99.90;;;;;;7369977;19;20514;-59
2023/11/28 02:03:14;;;;;;;3.25;2.20;;;0.80;99.90;;;;;;7370386;19;20144;-60
2023/11/28 02:05:40;;;;;;;4.97;2.83;;;0.70;99.90;;;;;;7371150;19;20018;-59
2023/11/28 02:08:22;;;;;;;4.65;2.30;;;0.80;99.90;;;;;;7369830;19;20023;-59
2023/11/28 02:10:49;;;;;;;4.53;2.30;;;0.80;99.90;;;;;;7374002;19;20775;-60
2023/11/28 02:13:16;;;;;;;5.32;3.13;;;0.70;99.90;;;;;;7372368;19;20571;-59
2023/11/28 02:15:45;;;;;;;4.68;2.92;;;0.70;99.90;;;;;;7369024;19;20034;-59
2023/11/28 02:18:13;;;;;;;4.00;2.80;;;0.70;99.90;;;;;;7371643;19;20672;-59
2023/11/28 02:20:41;;;;;;;5.90;2.92;;;0.80;99.90;;;;;;7373319;19;20019;-59
2023/11/28 02:23:10;;;;;;;7.10;3.08;;;0.70;99.90;;;;;;7368971;19;20011;-59
2023/11/28 02:25:50;;;;;;;6.32;3.30;;;0.80;99.90;;;;;;7372510;19;20098;-59
2023/11/28 02:28:21;;;;;;;5.80;3.67;;;0.70;99.90;;;;;;7368913;19;20036;-59
2023/11/28 02:30:48;;;;;;;4.53;3.40;;;0.80;99.90;;;;;;7374612;19;20033;-59
2023/11/28 02:33:15;;;;;;;4.60;2.88;;;0.70;99.90;;;;;;7371816;19;20014;-60
2023/11/28 02:35:42;;;;;;;5.05;3.10;;;0.70;99.90;;;;;;7373620;19;20019;-59
2023/11/28 02:38:08;;;;;;;5.03;3.47;;;0.80;99.90;;;;;;7375616;19;20029;-59
2023/11/28 02:40:35;;;;;;;4.57;3.10;;;0.80;99.90;;;;;;7381258;19;20022;-59
2023/11/28 02:43:02;;;;;;;7.93;3.25;;;0.80;99.90;;;;;;7378527;19;20094;-59
2023/11/28 02:45:29;;;;;;;4.55;2.67;;;0.70;99.90;;;;;;7378637;19;20018;-59
2023/11/28 02:47:55;;;;;;;6.82;2.85;;;0.80;99.90;;;;;;7377282;19;20022;-59
2023/11/28 02:50:21;;;;;;;3.53;2.25;;;0.70;99.90;;;;;;7376388;19;20524;-59
2023/11/28 02:52:47;;;;;;;4.07;2.70;;;0.80;99.90;;;;;;7374947;19;20484;-59
2023/11/28 02:55:18;;;;;;;4.13;2.30;;;0.60;99.90;;;;;;7379987;19;20026;-59
2023/11/28 02:58:06;;;;;;;3.92;2.53;;;0.70;99.90;;;;;;7377373;19;20034;-59
2023/11/28 03:00:32;;;;;;;6.93;2.92;;;0.60;99.90;;;;;;7378270;19;20037;-59
2023/11/28 03:02:58;;;;;;;5.35;2.47;;;0.60;99.90;;;;;;7380071;19;20029;-59
2023/11/28 03:05:25;;;;;;;4.55;2.85;;;0.70;99.90;;;;;;7379486;19;20029;-59
2023/11/28 03:07:52;;;;;;;5.90;2.78;;;0.70;99.90;;;;;;7375730;19;20014;-60
2023/11/28 03:10:22;;;;;;;4.60;3.13;;;0.70;99.90;;;;;;7377217;19;20022;-60
2023/11/28 03:12:49;;;;;;;5.28;3.20;;;0.70;99.90;;;;;;7375046;19;20022;-60
2023/11/28 03:15:23;;;;;;;7.53;2.85;;;0.70;99.90;;;;;;7380211;19;20043;-59
2023/11/28 03:17:51;;;;;;;7.00;2.97;;;0.70;99.90;;;;;;7377345;19;20042;-60
2023/11/28 03:20:17;;;;;;;4.38;2.78;;;0.80;99.90;;;;;;7377377;19;20787;-60
2023/11/28 03:22:43;;;;;;;5.00;3.25;;;0.80;99.90;;;;;;7375114;19;20018;-60
2023/11/28 03:25:11;;;;;;;5.65;3.33;;;0.70;99.90;;;;;;7376938;19;20039;-60
2023/11/28 03:27:38;;;;;;;6.28;3.75;;;0.80;99.90;;;;;;7374703;19;20486;-59
2023/11/28 03:30:04;;;;;;;6.43;3.30;;;0.80;99.90;;;;;;7378841;19;20326;-59
2023/11/28 03:32:32;;;;;;;6.88;3.30;;;0.80;99.90;;;;;;7376016;19;20026;-59
2023/11/28 03:34:58;;;;;;;4.50;3.30;;;0.80;99.90;;;;;;7375056;19;20045;-60
2023/11/28 03:37:25;;;;;;;10.57;3.90;;;0.80;99.90;;;;;;7377369;19;20026;-59
2023/11/28 03:39:52;;;;;;;5.18;3.35;;;0.80;99.90;;;;;;7372731;19;20564;-60
2023/11/28 03:42:19;;;;;;;4.75;2.97;;;0.80;99.90;;;;;;7374487;19;20047;-60
2023/11/28 03:44:46;;;;;;;4.25;3.03;;;0.90;99.90;;;;;;7375739;19;20018;-59
2023/11/28 03:47:12;;;;;;;5.32;3.28;;;0.80;99.90;;;;;;7371330;19;20929;-59
2023/11/28 03:49:39;;;;;;;7.50;3.75;;;0.80;99.90;;;;;;7373447;19;20470;-60
2023/11/28 03:52:05;;;;;;;4.72;3.05;;;0.80;99.90;;;;;;7377417;19;20113;-60
2023/11/28 03:54:31;;;;;;;4.07;3.00;;;0.80;99.90;;;;;;7375867;19;20064;-60
2023/11/28 03:56:58;;;;;;;6.20;3.33;;;0.80;99.90;;;;;;7370070;19;20387;-60
2023/11/28 03:59:24;;;;;;;4.88;3.13;;;0.80;99.90;;;;;;7375050;19;20092;-59
2023/11/28 04:01:52;;;;;;;5.50;2.97;;;0.80;99.90;;;;;;7376883;19;20046;-60
2023/11/28 04:04:18;;;;;;;5.50;3.63;;;0.80;99.90;;;;;;7378306;19;20821;-59
2023/11/28 04:06:44;;;;;;;5.82;3.00;;;0.80;99.90;;;;;;7373817;19;20379;-60
2023/11/28 04:09:14;;;;;;;6.18;3.28;;;0.70;99.90;;;;;;7376906;19;20014;-59
2023/11/28 04:11:40;;;;;;;4.43;3.50;;;0.70;99.90;;;;;;7374016;19;20017;-60
2023/11/28 04:14:06;;;;;;;6.72;3.78;;;0.70;99.90;;;;;;7374982;19;20034;-60
2023/11/28 04:16:34;;;;;;;4.53;3.70;;;0.70;99.90;;;;;;7376837;19;20525;-59
2023/11/28 04:19:01;;;;;;;8.27;3.63;;;0.70;99.90;;;;;;7373119;19;20098;-59
2023/11/28 04:21:27;;;;;;;6.93;3.08;;;0.80;99.90;;;;;;7376908;19;20023;-60
2023/11/28 04:23:54;;;;;;;5.72;3.70;;;0.80;99.90;;;;;;7373098;19;20006;-60
2023/11/28 04:26:20;;;;;;;5.50;3.05;;;0.80;99.90;;;;;;7374252;19;20014;-60
2023/11/28 04:28:47;;;;;;;6.97;3.58;;;0.90;99.90;;;;;;7372965;19;20018;-60
2023/11/28 04:31:20;;;;;;;5.40;3.33;;;0.90;99.90;;;;;;7375250;19;20014;-59
2023/11/28 04:33:50;;;;;;;5.85;3.25;;;1.00;99.90;;;;;;7374273;19;20775;-59
2023/11/28 04:36:16;;;;;;;5.78;3.33;;;1.10;99.90;;;;;;7375946;19;20663;-59
2023/11/28 04:38:44;;;;;;;7.38;3.90;;;1.20;99.90;;;;;;7374195;19;20926;-60
2023/11/28 04:41:13;;;;;;;5.32;3.80;;;1.30;99.90;;;;;;7378132;19;20019;-59
2023/11/28 04:43:39;;;;;;;5.72;3.70;;;1.30;99.90;;;;;;7373894;19;20053;-59
2023/11/28 04:46:07;;;;;;;7.95;3.35;;;1.40;99.90;;;;;;7374322;19;20031;-59
2023/11/28 04:48:34;;;;;;;4.97;3.17;;;1.50;99.90;;;;;;7370211;19;20049;-59
2023/11/28 04:51:01;;;;;;;8.82;3.40;;;1.50;99.90;;;;;;7376634;19;20015;-60
2023/11/28 04:53:27;;;;;;;4.10;2.97;;;1.60;99.90;;;;;;7373228;19;20015;-59
2023/11/28 04:55:54;;;;;;;6.78;3.80;;;1.60;99.90;;;;;;7372756;19;20018;-60
2023/11/28 04:58:20;;;;;;;6.55;3.47;;;1.60;99.90;;;;;;7370637;19;20015;-59
2023/11/28 05:00:47;;;;;;;5.57;2.70;;;1.60;99.90;;;;;;7373635;19;20046;-59
2023/11/28 05:03:14;;;;;;;4.47;2.92;;;1.70;99.90;;;;;;7371988;19;20026;-59
2023/11/28 05:05:40;;;;;;;4.93;2.75;;;1.70;99.90;;;;;;7374283;19;20048;-59
2023/11/28 05:08:07;;;;;;;4.07;2.55;;;1.70;99.90;;;;;;7370386;19;20033;-59
2023/11/28 05:10:34;;;;;;;4.75;1.95;;;1.70;99.90;;;;;;7372013;19;20029;-59
2023/11/28 05:13:02;;;;;;;2.65;2.15;;;1.70;99.90;;;;;;7374169;19;20010;-60
2023/11/28 05:15:29;;;;;;;3.55;2.38;;;1.70;99.90;;;;;;7375641;19;20022;-59
2023/11/28 05:17:55;;;;;;;4.00;2.80;;;1.60;99.90;;;;;;7372775;19;20014;-60
2023/11/28 05:20:21;;;;;;;5.63;3.05;;;1.70;99.90;;;;;;7373363;19;20355;-60
2023/11/28 05:22:48;;;;;;;4.93;3.28;;;1.70;99.90;;;;;;7373170;19;20019;-59
2023/11/28 05:25:15;;;;;;;4.78;2.85;;;1.60;99.90;;;;;;7374421;19;20065;-60
2023/11/28 05:27:43;;;;;;;4.82;2.85;;;1.60;99.90;;;;;;7372107;19;20022;-60
2023/11/28 05:30:10;;;;;;;6.07;3.20;;;1.50;99.90;;;;;;7374269;19;20353;-60
2023/11/28 05:32:37;;;;;;;5.15;3.08;;;1.50;99.90;;;;;;7372058;19;20014;-60
2023/11/28 05:35:04;;;;;;;6.53;3.97;;;1.50;99.90;;;;;;7372864;19;20090;-60
2023/11/28 05:37:31;;;;;;;8.40;3.97;;;1.40;99.90;;;;;;7372613;19;20014;-60
2023/11/28 05:40:03;;;;;;;7.65;4.28;;;1.50;99.90;;;;;;7369385;19;20054;-60
2023/11/28 05:42:30;;;;;;;10.63;4.68;;;1.50;99.90;;;;;;7375633;19;20018;-59
2023/11/28 05:44:56;;;;;;;7.28;4.25;;;1.50;99.90;;;;;;7373483;19;20405;-60
2023/11/28 05:47:23;;;;;;;8.38;4.50;;;1.50;99.90;;;;;;7372821;19;20018;-59
2023/11/28 05:49:50;;;;;;;7.22;4.32;;;1.50;99.90;;;;;;7371673;19;20006;-59
2023/11/28 05:52:19;;;;;;;9.32;4.47;;;1.60;99.90;;;;;;7376365;19;20536;-59
2023/11/28 05:54:45;;;;;;;8.88;5.05;;;1.60;99.90;;;;;;7374650;19;20101;-59
2023/11/28 05:57:12;;;;;;;7.22;4.80;;;1.60;99.90;;;;;;7377002;19;20078;-59
2023/11/28 05:59:38;;;;;;;7.35;4.75;;;1.60;99.90;;;;;;7375707;19;20086;-60
2023/11/28 06:02:07;;;;;;;5.95;4.50;;;1.60;99.90;;;;;;7375392;19;20807;-59
2023/11/28 06:04:42;;;;;;;8.52;4.53;;;1.60;99.90;;;;;;7374140;19;20022;-59
2023/11/28 06:07:09;;;;;;;7.68;4.43;;;1.60;99.90;;;;;;7373549;19;20106;-60
2023/11/28 06:09:36;;;;;;;10.15;5.47;;;1.60;99.90;;;;;;7376051;19;20031;-60
2023/11/28 06:12:05;;;;;;;12.40;6.00;;;1.60;99.90;;;;;;7381883;19;20759;-60
2023/11/28 06:14:32;;;;;;;11.02;6.22;;;1.60;99.90;;;;;;7381004;19;20687;-60
2023/11/28 06:17:01;;;;;;;12.75;6.10;;;1.60;99.90;;;;;;7380478;19;20530;-60
2023/11/28 06:19:28;;;;;;;11.88;6.65;;;1.60;99.90;;;;;;7380405;19;20019;-60
2023/11/28 06:21:54;;;;;;;8.40;5.28;;;1.60;99.90;;;;;;7382301;19;20082;-60
2023/11/28 06:24:21;;;;;;;11.45;5.30;;;1.60;99.90;;;;;;7379545;19;20022;-60
2023/11/28 06:26:47;;;;;;;8.18;5.30;;;1.60;99.90;;;;;;7379842;19;20490;-60
2023/11/28 06:29:13;;;;;;;11.82;6.82;;;1.60;99.90;;;;;;7380744;19;20022;-60
2023/11/28 06:31:39;;;;;;;9.65;5.35;;;1.60;99.90;;;;;;7380257;19;20051;-60
2023/11/28 06:34:06;;;;;;;11.60;5.95;;;1.50;99.90;;;;;;7381260;19;20027;-60
2023/11/28 06:36:34;;;;;;;7.95;4.82;;;1.50;99.90;;;;;;7381355;19;20050;-60
2023/11/28 06:39:01;;;;;;;8.43;5.25;;;1.50;99.90;;;;;;7378230;19;20482;-60
2023/11/28 06:41:28;;;;;;;11.13;6.20;;;1.50;99.90;;;;;;7377522;19;20026;-60
2023/11/28 06:43:54;;;;;;;12.80;8.43;;;1.40;99.90;;;;;;7378060;19;20035;-58
2023/11/28 06:46:23;;;;;;;10.38;6.72;;;1.40;99.90;;;;;;7380340;19;20022;-60
2023/11/28 06:48:50;;;;;;;11.40;6.45;;;1.40;99.90;;;;;;7381356;19;20039;-60
2023/11/28 06:51:17;;;;;;;16.98;7.35;;;1.30;99.90;;;;;;7379695;19;20017;-60
2023/11/28 06:53:43;;;;;;;12.60;7.85;;;1.30;99.90;;;;;;7379931;19;20051;-60
2023/11/28 06:56:10;;;;;;;9.73;5.65;;;1.30;99.90;;;;;;7381205;19;20714;-60
2023/11/28 06:58:36;;;;;;;16.02;10.82;;;1.40;99.90;;;;;;7379677;19;20029;-60
2023/11/28 07:01:03;;;;;;;12.95;10.48;;;1.40;99.90;;;;;;7379363;19;20493;-59
2023/11/28 07:03:31;;;;;;;13.25;9.88;;;1.40;99.90;;;;;;7381625;19;20018;-60
2023/11/28 07:05:58;;;;;;;9.70;7.03;;;1.40;99.90;;;;;;7381610;19;20030;-60
2023/11/28 07:08:24;;;;;;;9.27;6.28;;;1.40;99.90;;;;;;7381047;19;20018;-58
2023/11/28 07:10:52;;;;;;;10.32;5.70;;;1.40;99.90;;;;;;7377699;19;20021;-62
2023/11/28 07:13:18;;;;;;;10.82;6.13;;;1.40;99.90;;;;;;7381861;19;20018;-60
2023/11/28 07:15:44;;;;;;;11.88;5.20;;;1.30;99.90;;;;;;7383722;19;20029;-61
2023/11/28 07:18:15;;;;;;;9.50;6.43;;;1.40;99.90;;;;;;7383154;19;20027;-60
2023/11/28 07:20:43;;;;;;;11.68;5.80;;;1.40;99.90;;;;;;7377811;19;20019;-60
2023/11/28 07:23:13;;;;;;;6.50;4.65;;;1.40;99.90;;;;;;7379600;19;20616;-60
2023/11/28 07:25:40;;;;;;;7.90;5.30;;;1.30;99.90;;;;;;7378025;19;20018;-60
2023/11/28 07:28:06;;;;;;;7.20;5.05;;;1.40;99.90;;;;;;7378335;19;20883;-60
2023/11/28 07:30:32;;;;;;;9.15;5.22;;;1.40;99.90;;;;;;7380793;19;20048;-59
2023/11/28 07:32:59;;;;;;;10.38;5.60;;;1.50;99.90;;;;;;7378888;19;20022;-60
2023/11/28 07:35:25;;;;;;;12.25;6.00;;;1.40;99.90;;;;;;7377900;19;20025;-59
2023/11/28 07:37:51;;;;;;;9.48;5.55;;;1.50;99.90;;;;;;7377923;19;20015;-60
2023/11/28 07:40:18;;;;;;;9.25;6.50;;;1.50;99.90;;;;;;7378488;19;20022;-60
2023/11/28 07:42:44;;;;;;;10.82;6.63;;;1.50;99.90;;;;;;7378546;19;20010;-58
2023/11/28 07:45:10;;;;;;;10.07;4.72;;;1.50;99.90;;;;;;7379085;19;20038;-58
2023/11/28 07:47:37;;;;;;;10.43;6.57;;;1.50;99.90;;;;;;7376668;19;20021;-58
2023/11/28 07:50:05;;;;;;;9.20;4.60;;;1.50;99.90;;;;;;7378142;19;20074;-58
2023/11/28 07:52:31;;;;;;;8.05;4.85;;;1.60;99.90;;;;;;7377594;19;20052;-60
2023/11/28 07:54:57;;;;;;;9.25;5.18;;;1.60;99.90;;;;;;7378470;19;20321;-60
2023/11/28 07:57:23;;;;;;;6.93;4.90;;;1.60;99.90;;;;;;7380143;19;20018;-60
2023/11/28 07:59:50;;;;;;;6.55;4.20;;;1.60;99.90;;;;;;7375724;19;20017;-60
2023/11/28 08:02:16;;;;;;;11.40;4.90;;;1.60;99.90;;;;;;7379922;19;20021;-59
2023/11/28 08:04:42;;;;;;;12.10;4.90;;;1.60;99.90;;;;;;7376771;19;20064;-59
2023/11/28 08:07:08;;;;;;;8.00;5.32;;;1.60;99.90;;;;;;7379086;19;20015;-59
2023/11/28 08:09:35;;;;;;;9.48;4.75;;;1.60;99.90;;;;;;7378354;19;20025;-59
2023/11/28 08:12:01;;;;;;;10.07;5.47;;;1.60;99.90;;;;;;7376376;19;20019;-59
2023/11/28 08:14:27;;;;;;;7.40;4.63;;;1.60;99.90;;;;;;7377756;19;20014;-59
2023/11/28 08:16:53;;;;;;;7.70;4.22;;;1.60;99.90;;;;;;7377474;19;20022;-59
2023/11/28 08:19:20;;;;;;;6.82;3.92;;;1.60;99.90;;;;;;7380276;19;20019;-59
2023/11/28 08:21:46;;;;;;;8.25;4.00;;;1.60;99.90;;;;;;7378660;19;20670;-58
2023/11/28 08:24:15;;;;;;;8.73;5.15;;;1.70;99.90;;;;;;7376437;19;20021;-59
2023/11/28 08:26:41;;;;;;;7.60;4.00;;;1.90;99.90;;;;;;7376427;19;20500;-59
2023/11/28 08:29:08;;;;;;;9.18;4.22;;;1.90;99.90;;;;;;7377392;19;20021;-59
2023/11/28 08:31:34;;;;;;;6.28;4.05;;;2.00;99.90;;;;;;7377686;19;20022;-59
2023/11/28 08:34:00;;;;;;;7.65;4.20;;;2.00;99.90;;;;;;7376491;19;20550;-59
2023/11/28 08:36:29;;;;;;;6.55;3.97;;;1.90;99.90;;;;;;7378600;19;20039;-61
2023/11/28 08:38:55;;;;;;;5.55;4.00;;;1.90;99.90;;;;;;7378142;19;20029;-59
2023/11/28 08:41:22;;;;;;;6.95;4.30;;;2.10;99.90;;;;;;7379832;19;20018;-59
2023/11/28 08:43:48;;;;;;;6.15;3.70;;;2.40;99.90;;;;;;7380561;19;20029;-59
2023/11/28 08:46:18;;;;;;;5.47;3.53;;;2.60;99.90;;;;;;7377531;19;20022;-60
2023/11/28 08:48:45;;;;;;;5.60;3.70;;;2.60;99.90;;;;;;7377271;19;20015;-59
2023/11/28 08:51:12;;;;;;;5.70;3.38;;;2.50;99.90;;;;;;7375434;19;20022;-59
2023/11/28 08:53:38;;;;;;;6.82;3.75;;;2.30;99.90;;;;;;7380698;19;20041;-59
2023/11/28 08:56:10;;;;;;;8.13;4.43;;;2.30;99.90;;;;;;7374613;19;20018;-59
2023/11/28 08:58:39;;;;;;;7.43;3.92;;;2.40;99.90;;;;;;7376503;19;20368;-59
2023/11/28 09:01:07;;;;;;;5.85;4.10;;;2.50;99.90;;;;;;7375370;19;20006;-59
2023/11/28 09:03:40;;;;;;;6.00;3.97;;;2.70;99.90;;;;;;7376807;19;20023;-58
2023/11/28 09:06:07;;;;;;;6.60;4.30;;;2.60;99.90;;;;;;7376878;19;20011;-59
2023/11/28 09:08:34;;;;;;;6.00;3.92;;;2.80;99.90;;;;;;7375125;19;20829;-59
2023/11/28 09:11:02;;;;;;;6.90;4.25;;;2.90;99.90;;;;;;7372858;19;20041;-57
2023/11/28 09:13:29;;;;;;;8.88;4.18;;;3.10;99.90;;;;;;7375804;19;20018;-59
2023/11/28 09:15:56;;;;;;;11.55;5.07;;;3.10;99.90;;;;;;7373879;19;20727;-59
2023/11/28 09:18:22;;;;;;;6.82;4.57;;;3.10;99.90;;;;;;7373785;19;20051;-59
2023/11/28 09:20:48;;;;;;;6.95;4.10;;;3.10;99.90;;;;;;7372643;19;20019;-60
2023/11/28 09:23:14;;;;;;;8.32;4.30;;;3.00;99.90;;;;;;7375580;19;20022;-58
2023/11/28 09:25:41;;;;;;;7.38;4.30;;;3.00;99.90;;;;;;7376533;19;20135;-59
2023/11/28 09:28:10;;;;;;;6.65;5.20;;;3.10;99.90;;;;;;7374087;19;20501;-59
2023/11/28 09:30:37;;;;;;;7.43;4.50;;;3.30;99.90;;;;;;7376212;19;20018;-59
2023/11/28 09:33:03;;;;;;;7.47;4.20;;;3.40;99.90;;;;;;7371588;19;20042;-59
2023/11/28 09:35:29;;;;;;;5.85;4.00;;;3.50;99.90;;;;;;7375072;19;21070;-60
2023/11/28 09:37:55;;;;;;;8.77;3.95;;;3.50;99.90;;;;;;7374861;19;20052;-59
2023/11/28 09:40:22;;;;;;;5.55;3.90;;;3.50;99.90;;;;;;7376283;19;20601;-59
2023/11/28 09:42:51;;;;;;;10.75;4.32;;;3.40;99.90;;;;;;7376171;19;20022;-59
2023/11/28 09:45:21;;;;;;;56.92;11.30;;;3.50;99.90;;;;;;7372481;19;20018;-58
2023/11/28 09:47:48;;;;;;;7.57;4.95;;;3.60;99.90;;;;;;7371998;19;20415;-59
2023/11/28 09:50:15;;;;;;;7.15;4.38;;;3.50;99.90;;;;;;7373684;19;20921;-59
2023/11/28 09:52:42;;;;;;;6.45;4.30;;;3.50;99.90;;;;;;7374612;19;20018;-59
2023/11/28 09:55:11;;;;;;;8.68;4.65;;;3.60;99.90;;;;;;7372341;19;20837;-60
2023/11/28 09:57:48;;;;;;;12.55;7.75;;;4.10;99.90;;;;;;7374020;19;20020;-60
2023/11/28 10:00:19;;;;;;;6.15;3.72;;;4.40;99.90;;;;;;7370362;19;20061;-60
2023/11/28 10:02:54;;;;;;;5.30;3.60;;;4.60;99.90;;;;;;7372624;19;20025;-60
2023/11/28 10:05:21;;;;;;;7.22;3.65;;;4.60;99.90;;;;;;7373671;19;20424;-60
2023/11/28 10:07:52;;;;;;;24.95;15.63;;;4.50;99.90;;;;;;7371467;19;20021;-61
2023/11/28 10:10:19;;;;;;;7.13;4.13;;;4.40;99.90;;;;;;7373618;19;20468;-60
2023/11/28 10:12:46;;;;;;;72.55;13.85;;;4.30;99.90;;;;;;7375188;19;20624;-61
2023/11/28 10:15:12;;;;;;;7.30;3.58;;;4.30;99.90;;;;;;7375008;19;20018;-60
2023/11/28 10:17:38;;;;;;;4.95;2.97;;;4.30;99.90;;;;;;7375427;19;20035;-58
2023/11/28 10:20:08;;;;;;;5.18;3.22;;;4.30;99.90;;;;;;7372015;19;20794;-59
2023/11/28 10:22:35;;;;;;;5.20;2.92;;;4.40;99.90;;;;;;7371749;19;20509;-58
2023/11/28 10:25:10;;;;;;;53.13;9.10;;;4.30;99.90;;;;;;7371847;19;20463;-58
2023/11/28 10:27:49;;;;;;;5.03;2.58;;;4.30;99.90;;;;;;7371750;19;20014;-58
2023/11/28 10:30:21;;;;;;;6.97;3.53;;;4.20;99.90;;;;;;7375001;19;20018;-58
2023/11/28 10:32:50;;;;;;;6.65;3.20;;;4.00;99.90;;;;;;7371159;19;20054;-59
2023/11/28 10:35:16;;;;;;;4.32;2.75;;;4.00;99.90;;;;;;7372796;19;20014;-60
2023/11/28 10:37:43;;;;;;;4.30;2.90;;;3.90;99.90;;;;;;7372697;19;20110;-60
2023/11/28 10:40:14;;;;;;;6.90;3.80;;;3.60;99.90;;;;;;7373041;19;20019;-59
2023/11/28 10:42:42;;;;;;;12.88;5.55;;;3.70;99.90;;;;;;7372469;19;20026;-59
2023/11/28 10:45:13;;;;;;;4.80;3.03;;;3.80;99.90;;;;;;7370386;19;20762;-59
2023/11/28 10:47:42;;;;;;;15.38;8.77;;;3.90;99.90;;;;;;7372486;19;20022;-59
2023/11/28 10:50:13;;;;;;;25.60;12.60;;;5.20;99.90;;;;;;7374359;19;20037;-59
2023/11/28 10:52:45;;;;;;;4.63;2.40;;;6.80;99.90;;;;;;7375560;19;20011;-60
2023/11/28 10:55:18;;;;;;;6.28;2.85;;;7.30;99.90;;;;;;7371553;19;20034;-59
2023/11/28 10:58:04;;;;;;;4.65;2.42;;;7.30;99.90;;;;;;7379141;19;20023;-59
2023/11/28 11:00:37;;;;;;;4.03;2.38;;;6.90;99.90;;;;;;7380195;19;20038;-59
2023/11/28 11:03:05;;;;;;;4.97;2.63;;;6.50;99.90;;;;;;7379999;19;20014;-59
2023/11/28 11:05:31;;;;;;;5.28;2.80;;;6.20;99.90;;;;;;7381402;19;20866;-59
2023/11/28 11:07:58;;;;;;;4.05;2.50;;;5.80;99.90;;;;;;7378200;19;20770;-59
2023/11/28 11:10:25;;;;;;;5.13;3.00;;;5.60;99.90;;;;;;7379021;19;20018;-59
2023/11/28 11:13:25;;;;;;;5.90;3.17;;;5.30;99.90;;;;;;7376150;19;20015;-59
2023/11/28 11:16:11;;;;;;;4.28;2.40;;;4.90;99.90;;;;;;7376285;19;20055;-59
2023/11/28 11:18:44;;;;;;;3.83;2.63;;;4.70;99.90;;;;;;7378443;19;20014;-59
2023/11/28 11:21:30;;;;;;;6.93;3.15;;;4.50;99.90;;;;;;7377650;19;20018;-59
2023/11/28 11:23:57;;;;;;;4.72;3.03;;;4.40;99.90;;;;;;7377669;19;20031;-59
2023/11/28 11:26:39;;;;;;;4.20;2.70;;;4.20;99.90;;;;;;7380188;19;20041;-59
2023/11/28 11:29:19;;;;;;;4.82;2.60;;;4.10;99.90;;;;;;7377186;19;20030;-59
2023/11/28 11:31:55;;;;;;;4.95;2.35;;;4.10;99.90;;;;;;7379755;19;20380;-59
2023/11/28 11:34:43;;;;;;;4.88;2.58;;;4.00;99.90;;;;;;7379983;19;20573;-60
2023/11/28 11:37:17;;;;;;;4.55;2.58;;;4.00;99.90;;;;;;7379177;19;20022;-61
2023/11/28 11:39:45;;;;;;;5.45;2.50;;;4.10;99.90;;;;;;7380048;19;20015;-60
2023/11/28 11:42:13;;;;;;;3.75;2.50;;;4.10;99.90;;;;;;7375770;19;20752;-60
2023/11/28 11:44:47;;;;;;;4.75;2.40;;;4.00;99.90;;;;;;7375961;19;20026;-60
2023/11/28 11:47:19;;;;;;;4.80;2.55;;;4.10;99.90;;;;;;7377074;19;20090;-59
2023/11/28 11:49:45;;;;;;;;;;;4.00;99.90;;;;;;7379037;19;20101;-59
2023/11/28 11:52:13;;;;;;;5.35;2.67;;;3.90;99.90;;;;;;7376784;19;19926;-58
2023/11/28 11:54:46;;;;;;;6.32;2.63;;;3.80;99.90;;;;;;7379487;19;20014;-59
2023/11/28 11:57:14;;;;;;;4.50;2.35;;;3.90;99.90;;;;;;7378074;19;20011;-59
2023/11/28 11:59:41;;;;;;;4.18;2.58;;;3.80;99.90;;;;;;7376941;19;20037;-59
2023/11/28 12:02:09;;;;;;;5.28;2.83;;;3.90;99.90;;;;;;7378971;19;20006;-60
2023/11/28 12:04:44;;;;;;;7.07;3.10;;;4.00;99.90;;;;;;7375149;19;20019;-61
2023/11/28 12:07:12;;;;;;;3.42;2.30;;;4.20;99.90;;;;;;7375372;19;20014;-62
2023/11/28 12:09:40;;;;;;;4.82;2.67;;;4.10;99.90;;;;;;7377413;19;20033;-60
2023/11/28 12:12:13;;;;;;;4.47;2.72;;;4.10;99.90;;;;;;7377072;19;20015;-62
2023/11/28 12:14:40;;;;;;;6.35;2.95;;;4.30;99.90;;;;;;7375952;19;20078;-59
2023/11/28 12:17:07;;;;;;;5.72;2.15;;;4.50;99.90;;;;;;7378135;19;20026;-59
2023/11/28 12:19:34;;;;;;;4.65;2.78;;;4.60;99.90;;;;;;7378151;19;20374;-59
2023/11/28 12:22:05;;;;;;;3.88;2.40;;;4.60;99.90;;;;;;7376727;19;20054;-59
2023/11/28 12:24:32;;;;;;;5.32;2.47;;;4.70;99.90;;;;;;7372991;19;20026;-59
2023/11/28 12:26:59;;;;;;;3.50;1.92;;;5.20;99.90;;;;;;7374610;19;20035;-59
2023/11/28 12:29:26;;;;;;;3.10;2.20;;;6.30;99.90;;;;;;7377234;19;20010;-60
2023/11/28 12:31:53;;;;;;;5.40;2.45;;;7.50;99.90;;;;;;7374021;19;20526;-59
2023/11/28 12:34:30;;;;;;;3.40;2.08;;;8.50;99.90;;;;;;7374954;19;20014;-58
2023/11/28 12:36:58;;;;;;;4.75;2.05;;;9.40;99.90;;;;;;7378224;19;20018;-58
2023/11/28 12:39:26;;;;;;;3.40;1.80;;;9.00;99.90;;;;;;7377190;19;20031;-58
2023/11/28 12:41:54;;;;;;;3.53;1.83;;;8.60;99.90;;;;;;7377147;19;20032;-59
2023/11/28 12:44:29;;;;;;;5.30;2.20;;;8.30;99.90;;;;;;7377650;19;20497;-59
2023/11/28 12:46:57;;;;;;;3.17;1.98;;;8.90;99.90;;;;;;7370694;19;20599;-58
2023/11/28 12:49:24;;;;;;;3.35;1.60;;;9.50;99.90;;;;;;7374459;19;20010;-59
2023/11/28 12:51:58;;;;;;;2.72;1.80;;;10.00;99.90;;;;;;7377348;19;20421;-59
2023/11/28 12:54:25;;;;;;;2.92;1.55;;;10.70;99.90;;;;;;7374869;19;20015;-60
2023/11/28 12:56:55;;;;;;;3.80;1.95;;;11.20;99.90;;;;;;7375012;19;20486;-60
2023/11/28 12:59:23;;;;;;;3.42;1.95;;;11.40;99.90;;;;;;7374443;19;20781;-60